Time;durP1;ratioP1;P1;durP2;ratioP2;P2;SDS_P1;SDS_P2;PMS_P1;PMS_P2;Temp;Humidity;BMP_temperature;BMP_pressure;BME280_temperature;BME280_humidity;BME280_pressure;Samples;Min_cycle;Max_cycle;Signal;HPM_P1;HPM_P2
2021/04/20 00:01:38;;;;;;;30.55;21.23;;;;;;;7.03;76.71;101897.84;5013246;28;20061;-50
2021/04/20 00:04:05;;;;;;;34.47;22.10;;;;;;;7.00;76.07;101895.34;5013510;28;20041;-49
2021/04/20 00:06:32;;;;;;;33.38;22.38;;;;;;;6.99;76.23;101899.69;5012341;28;20133;-52
2021/04/20 00:08:59;;;;;;;34.90;21.45;;;;;;;6.93;76.44;101899.91;5013359;28;20050;-52
2021/04/20 00:11:26;;;;;;;35.70;24.17;;;;;;;6.86;76.98;101895.78;5012770;28;20046;-50
2021/04/20 00:13:52;;;;;;;38.15;25.48;;;;;;;6.81;77.45;101892.47;5011650;28;20386;-53
2021/04/20 00:16:18;;;;;;;37.40;24.30;;;;;;;6.78;77.32;101888.19;5012105;28;20042;-47
2021/04/20 00:18:45;;;;;;;35.35;24.13;;;;;;;6.76;77.37;101887.38;5013132;28;20056;-52
2021/04/20 00:21:11;;;;;;;39.50;25.65;;;;;;;6.74;78.02;101890.03;5013227;28;20485;-49
2021/04/20 00:23:37;;;;;;;41.05;26.75;;;;;;;6.70;78.39;101888.44;4995563;28;20057;-48
2021/04/20 00:26:04;;;;;;;40.22;26.08;;;;;;;6.70;77.86;101877.13;5012076;28;20049;-49
2021/04/20 00:28:30;;;;;;;38.05;26.02;;;;;;;6.64;77.75;101882.53;5012972;28;20066;-50
2021/04/20 00:30:56;;;;;;;40.47;24.98;;;;;;;6.64;77.84;101886.03;5011680;28;20038;-48
2021/04/20 00:33:23;;;;;;;34.13;22.60;;;;;;;6.63;77.85;101879.09;5013193;28;20073;-52
2021/04/20 00:35:49;;;;;;;34.00;22.65;;;;;;;6.60;78.13;101880.03;5012833;28;20046;-51
2021/04/20 00:38:16;;;;;;;33.38;23.25;;;;;;;6.57;77.88;101871.41;5011994;28;20053;-49
2021/04/20 00:40:43;;;;;;;36.83;23.70;;;;;;;6.51;77.85;101876.84;5011471;28;20493;-48
2021/04/20 00:43:10;;;;;;;36.35;23.80;;;;;;;6.52;76.93;101878.56;5012419;28;20508;-47
2021/04/20 00:45:38;;;;;;;37.00;25.38;;;;;;;6.41;77.83;101874.53;5011065;28;20053;-49
2021/04/20 00:48:05;;;;;;;36.42;24.25;;;;;;;6.41;77.82;101874.53;5011473;28;20056;-49
2021/04/20 00:50:38;;;;;;;42.28;26.63;;;;;;;6.38;78.83;101871.16;5012521;28;20056;-50
2021/04/20 00:53:07;;;;;;;40.65;24.95;;;;;;;6.37;77.51;101874.69;5012708;28;20060;-49
2021/04/20 00:55:34;;;;;;;41.28;25.83;;;;;;;6.30;78.41;101873.13;5012437;28;20440;-46
2021/04/20 00:58:01;;;;;;;44.20;26.52;;;;;;;6.27;78.93;101868.88;5011386;28;20084;-47
2021/04/20 01:00:29;;;;;;;40.13;26.05;;;;;;;6.31;79.14;101867.88;5012508;28;20056;-51
2021/04/20 01:02:56;;;;;;;41.83;26.92;;;;;;;6.22;79.62;101865.56;5012589;28;20050;-50
2021/04/20 01:05:31;;;;;;;38.25;24.58;;;;;;;6.23;78.36;101870.72;5011384;28;20058;-49
2021/04/20 01:08:04;;;;;;;41.55;26.83;;;;;;;6.18;78.88;101859.56;5012180;28;20064;-50
2021/04/20 01:10:32;;;;;;;39.63;26.30;;;;;;;6.19;78.12;101858.66;5012351;28;20038;-49
2021/04/20 01:12:58;;;;;;;39.40;25.88;;;;;;;6.15;78.64;101864.00;5012278;28;20119;-48
2021/04/20 01:15:25;;;;;;;36.40;24.13;;;;;;;6.17;78.41;101859.63;5011948;28;20042;-49
2021/04/20 01:17:51;;;;;;;44.25;27.33;;;;;;;6.13;79.00;101856.22;5010784;28;20049;-52
2021/04/20 01:20:17;;;;;;;41.33;26.90;;;;;;;6.09;78.49;101854.63;5012324;28;20432;-49
2021/04/20 01:22:45;;;;;;;41.53;26.50;;;;;;;6.10;78.92;101856.34;5011975;28;20042;-48
2021/04/20 01:25:14;;;;;;;42.78;27.88;;;;;;;6.06;78.32;101850.34;5011128;28;20054;-50
2021/04/20 01:27:40;;;;;;;41.28;26.55;;;;;;;6.10;78.74;101853.72;5012123;28;20082;-51
2021/04/20 01:30:09;;;;;;;45.25;26.77;;;;;;;6.07;79.30;101852.06;5011092;28;20054;-50
2021/04/20 01:32:37;;;;;;;38.58;25.13;;;;;;;6.04;79.01;101846.06;5012028;28;20046;-51
2021/04/20 01:35:07;;;;;;;40.75;25.65;;;;;;;6.08;78.23;101860.72;5011513;28;20056;-49
2021/04/20 01:37:33;;;;;;;39.05;25.38;;;;;;;6.13;78.54;101858.00;5010252;28;20373;-50
2021/04/20 01:40:00;;;;;;;39.15;24.77;;;;;;;6.08;78.65;101851.16;5011344;28;20050;-47
2021/04/20 01:42:26;;;;;;;41.42;26.40;;;;;;;6.07;78.59;101859.88;5010132;28;20053;-51
2021/04/20 01:44:52;;;;;;;42.50;25.52;;;;;;;5.99;78.46;101861.03;5010470;28;20451;-51
2021/04/20 01:47:19;;;;;;;40.25;25.58;;;;;;;5.96;78.91;101854.09;5011979;28;20476;-49
2021/04/20 01:49:45;;;;;;;36.45;24.60;;;;;;;5.94;79.32;101855.88;5010844;28;20133;-50
2021/04/20 01:52:14;;;;;;;40.85;26.00;;;;;;;5.88;79.10;101854.31;5011909;28;20046;-48
2021/04/20 01:54:41;;;;;;;36.65;24.88;;;;;;;5.86;79.60;101850.91;5011594;28;20092;-50
2021/04/20 01:57:08;;;;;;;38.78;24.95;;;;;;;5.85;78.99;101843.97;5010767;28;20045;-50
2021/04/20 01:59:34;;;;;;;38.20;24.65;;;;;;;5.85;78.42;101853.53;5010202;28;20057;-48
2021/04/20 02:02:01;;;;;;;43.28;26.67;;;;;;;5.80;79.21;101853.69;5010547;28;20057;-46
2021/04/20 02:04:28;;;;;;;42.13;27.35;;;;;;;5.71;79.60;101851.34;5010654;28;20064;-50
2021/04/20 02:06:54;;;;;;;38.70;24.95;;;;;;;5.71;79.47;101854.81;5011741;28;20045;-52
2021/04/20 02:09:21;;;;;;;37.55;24.67;;;;;;;5.64;79.34;101842.81;5010346;28;20065;-50
2021/04/20 02:11:47;;;;;;;40.13;26.17;;;;;;;5.68;79.37;101851.44;5010599;28;20053;-49
2021/04/20 02:14:13;;;;;;;38.80;24.58;;;;;;;5.70;79.21;101849.63;5011634;28;20054;-47
2021/04/20 02:16:41;;;;;;;41.72;25.65;;;;;;;5.64;79.26;101852.41;4994221;28;20504;-49
2021/04/20 02:19:12;;;;;;;39.83;25.58;;;;;;;5.59;78.71;101849.94;5010553;28;20465;-47
2021/04/20 02:21:39;;;;;;;42.05;26.05;;;;;;;5.59;79.45;101849.94;5010555;28;20050;-50
2021/04/20 02:24:12;;;;;;;39.25;25.17;;;;;;;5.56;78.88;101850.88;5010463;28;20532;-48
2021/04/20 02:26:39;;;;;;;42.80;26.70;;;;;;;5.55;78.16;101848.34;5010603;28;20453;-47
2021/04/20 02:29:07;;;;;;;39.10;23.70;;;;;;;5.51;79.08;101842.31;4994392;28;20050;-50
2021/04/20 02:31:36;;;;;;;41.63;24.13;;;;;;;5.53;78.66;101847.50;5011381;28;20046;-49
2021/04/20 02:34:07;;;;;;;41.47;24.90;;;;;;;5.47;78.86;101840.69;5010379;28;20121;-50
2021/04/20 02:36:41;;;;;;;37.25;25.05;;;;;;;5.43;79.21;101844.28;5014423;28;20065;-48
2021/04/20 02:39:08;;;;;;;36.78;23.40;;;;;;;5.41;79.29;101843.47;5013853;28;20053;-47
2021/04/20 02:41:35;;;;;;;36.65;24.27;;;;;;;5.33;79.61;101837.59;5013966;28;20046;-47
2021/04/20 02:44:02;;;;;;;42.50;25.63;;;;;;;5.28;79.76;101842.97;5013651;28;20087;-50
2021/04/20 02:46:29;;;;;;;40.20;25.38;;;;;;;5.24;79.37;101836.97;5014528;28;20439;-51
2021/04/20 02:48:55;;;;;;;36.95;24.00;;;;;;;5.27;79.53;101845.63;5014566;28;20045;-49
2021/04/20 02:51:22;;;;;;;41.20;25.55;;;;;;;5.18;80.42;101839.75;5014846;28;20397;-47
2021/04/20 02:53:48;;;;;;;37.50;24.50;;;;;;;5.17;80.51;101845.00;5013426;28;20064;-48
2021/04/20 02:56:17;;;;;;;38.75;24.10;;;;;;;5.16;80.14;101846.75;5013701;28;20052;-46
2021/04/20 02:58:44;;;;;;;39.70;24.27;;;;;;;5.11;80.04;101838.19;5014604;28;20052;-47
2021/04/20 03:01:24;;;;;;;41.47;25.70;;;;;;;5.06;80.26;101843.53;5014656;28;20389;-51
2021/04/20 03:03:51;;;;;;;45.50;27.92;;;;;;;4.93;82.35;101841.28;4997088;28;20077;-49
2021/04/20 03:06:18;;;;;;;44.17;27.60;;;;;;;4.93;81.82;101844.72;5029806;28;20046;-50
2021/04/20 03:08:47;;;;;;;51.08;30.13;;;;;;;4.94;83.26;101845.59;4997116;28;20064;-47
2021/04/20 03:11:15;;;;;;;50.30;29.70;;;;;;;4.94;83.49;101840.41;5029905;28;20053;-48
2021/04/20 03:13:45;;;;;;;49.78;30.05;;;;;;;4.93;82.84;101847.34;5014463;28;20061;-49
2021/04/20 03:16:28;;;;;;;47.42;28.13;;;;;;;4.98;83.80;101842.88;5014470;28;20489;-48
2021/04/20 03:18:56;;;;;;;57.67;33.88;;;;;;;4.98;84.62;101844.63;5013184;28;20128;-51
2021/04/20 03:21:23;;;;;;;66.30;35.08;;;;;;;5.11;86.17;101837.34;5013002;28;20049;-46
2021/04/20 03:23:53;;;;;;;66.38;36.95;;;;;;;5.07;85.88;101834.81;5013756;28;20056;-47
2021/04/20 03:26:26;;;;;;;62.22;35.60;;;;;;;5.28;86.20;101834.28;5012814;28;20048;-47
2021/04/20 03:28:57;;;;;;;66.20;36.13;;;;;;;5.24;86.18;101834.34;5014022;28;20049;-48
2021/04/20 03:31:24;;;;;;;61.67;34.45;;;;;;;5.29;86.17;101835.97;5029221;28;20065;-46
2021/04/20 03:33:54;;;;;;;63.67;34.75;;;;;;;5.25;85.67;101830.84;5013927;28;20069;-48
2021/04/20 03:36:24;;;;;;;58.25;33.78;;;;;;;5.22;84.94;101836.16;5014107;28;20488;-52
2021/04/20 03:39:07;;;;;;;62.65;36.58;;;;;;;5.17;85.14;101829.38;5013926;28;20057;-50
2021/04/20 03:42:04;;;;;;;51.33;31.52;;;;;;;5.16;84.36;101833.69;5012871;28;20120;-52
2021/04/20 03:44:34;;;;;;;55.70;32.08;;;;;;;5.16;85.10;101828.50;5012044;28;20052;-47
2021/04/20 03:47:03;;;;;;;56.28;32.28;;;;;;;5.12;84.20;101834.69;5011086;28;20046;-47
2021/04/20 03:49:32;;;;;;;56.95;33.33;;;;;;;5.08;84.17;101833.94;5012457;28;20370;-49
2021/04/20 03:52:00;;;;;;;57.45;32.72;;;;;;;5.03;84.13;101832.31;5012457;28;20053;-51
2021/04/20 03:54:27;;;;;;;52.35;30.75;;;;;;;5.01;83.94;101836.72;5012561;28;20397;-50
2021/04/20 03:56:55;;;;;;;55.92;30.83;;;;;;;5.00;83.71;101832.41;5012379;28;20046;-52
2021/04/20 03:59:24;;;;;;;51.97;28.95;;;;;;;4.99;82.84;101823.72;5029080;28;20079;-49
2021/04/20 04:01:51;;;;;;;49.67;30.45;;;;;;;4.99;82.42;101828.94;5012297;28;20489;-48
2021/04/20 04:04:20;;;;;;;52.42;31.85;;;;;;;4.99;82.26;101823.72;5012152;28;20524;-47
2021/04/20 04:06:47;;;;;;;50.38;30.10;;;;;;;4.92;82.64;101822.16;5011950;28;20065;-49
2021/04/20 04:09:16;;;;;;;46.40;26.58;;;;;;;4.92;81.96;101816.94;4995157;28;20094;-53
2021/04/20 04:11:49;;;;;;;44.53;26.73;;;;;;;4.96;82.02;101822.94;5011570;28;20508;-48
2021/04/20 04:14:16;;;;;;;48.97;27.65;;;;;;;4.89;81.71;101822.25;5013253;28;20054;-49
2021/04/20 04:16:45;;;;;;;46.13;27.38;;;;;;;4.96;80.38;101822.94;5011786;28;20058;-50
2021/04/20 04:19:13;;;;;;;44.80;27.13;;;;;;;4.86;80.80;101831.00;5028303;28;20393;-50
2021/04/20 04:21:46;;;;;;;49.58;31.23;;;;;;;4.84;82.70;101830.19;5011705;28;20137;-51
2021/04/20 04:24:14;;;;;;;58.90;33.72;;;;;;;4.82;84.75;101826.75;5012166;28;20042;-50
2021/04/20 04:26:46;;;;;;;52.40;32.53;;;;;;;4.79;83.88;101821.63;5011903;28;20440;-52
2021/04/20 04:29:13;;;;;;;51.30;31.05;;;;;;;4.80;82.81;101831.16;5013246;28;20593;-49
2021/04/20 04:31:43;;;;;;;56.63;33.25;;;;;;;4.77;83.55;101818.19;5011553;28;20120;-52
2021/04/20 04:34:15;;;;;;;58.97;34.17;;;;;;;4.81;85.48;101830.25;5011778;28;20046;-49
2021/04/20 04:36:42;;;;;;;51.38;30.20;;;;;;;4.76;84.67;101826.94;5011689;28;20061;-47
2021/04/20 04:39:16;;;;;;;52.30;29.73;;;;;;;4.75;84.31;101827.81;4995381;28;20038;-46
2021/04/20 04:41:43;;;;;;;52.90;30.83;;;;;;;4.78;84.33;101821.66;5011519;28;20081;-49
2021/04/20 04:44:13;;;;;;;49.92;31.35;;;;;;;4.76;84.04;101821.72;5012916;28;20053;-48
2021/04/20 04:46:41;;;;;;;56.58;33.85;;;;;;;4.71;83.32;101821.81;5011417;28;20128;-50
2021/04/20 04:49:08;;;;;;;50.17;29.73;;;;;;;4.70;83.16;101821.84;5011495;28;20049;-49
2021/04/20 04:51:35;;;;;;;51.25;30.70;;;;;;;4.71;82.99;101819.19;5012761;28;20117;-48
2021/04/20 04:54:01;;;;;;;48.97;30.67;;;;;;;4.69;82.58;101820.13;5011376;28;20116;-50
2021/04/20 04:56:28;;;;;;;51.22;30.35;;;;;;;4.69;83.12;101827.94;5011411;28;20437;-50
2021/04/20 04:58:55;;;;;;;50.22;30.10;;;;;;;4.68;83.29;101824.50;5011217;28;20058;-47
2021/04/20 05:01:22;;;;;;;53.08;30.95;;;;;;;4.68;83.54;101832.31;5027856;28;20050;-48
2021/04/20 05:03:48;;;;;;;49.30;28.10;;;;;;;4.71;82.93;101832.22;5011370;28;20576;-50
2021/04/20 05:06:17;;;;;;;48.70;30.52;;;;;;;4.72;82.52;101831.34;5012426;28;20046;-47
2021/04/20 05:08:43;;;;;;;48.95;29.85;;;;;;;4.72;82.43;101839.16;5010649;28;20053;-49
2021/04/20 05:11:10;;;;;;;50.80;30.23;;;;;;;4.71;82.15;101834.00;5011110;28;20121;-47
2021/04/20 05:13:36;;;;;;;47.92;28.75;;;;;;;4.70;81.96;101832.28;5010922;28;20044;-51
2021/04/20 05:16:06;;;;;;;50.67;29.10;;;;;;;4.72;82.38;101835.72;5010503;28;20054;-50
2021/04/20 05:18:35;;;;;;;47.75;29.05;;;;;;;4.68;82.52;101834.09;4994567;28;20467;-52
2021/04/20 05:21:02;;;;;;;48.97;27.90;;;;;;;4.69;83.15;101833.16;5010585;28;20069;-51
2021/04/20 05:23:29;;;;;;;49.15;27.38;;;;;;;4.80;83.16;101835.50;5010842;28;20042;-49
2021/04/20 05:25:55;;;;;;;48.47;29.10;;;;;;;4.69;83.45;101836.66;5027352;28;20050;-50
2021/04/20 05:28:22;;;;;;;53.60;30.60;;;;;;;4.69;83.46;101834.03;5010899;28;20041;-47
2021/04/20 05:30:51;;;;;;;54.17;31.02;;;;;;;4.74;83.19;101834.78;5011834;28;20107;-50
2021/04/20 05:33:17;;;;;;;49.83;30.15;;;;;;;4.73;83.37;101838.28;5010686;28;20046;-52
2021/04/20 05:35:43;;;;;;;52.88;30.15;;;;;;;4.72;83.93;101838.31;5011891;28;20500;-47
2021/04/20 05:38:10;;;;;;;53.83;31.65;;;;;;;4.75;84.75;101840.84;5010612;28;20064;-47
2021/04/20 05:40:39;;;;;;;57.08;31.85;;;;;;;4.79;84.60;101842.47;5011523;28;20046;-48
2021/04/20 05:43:06;;;;;;;56.38;30.58;;;;;;;4.83;84.85;101838.91;5011509;28;20417;-48
2021/04/20 05:45:33;;;;;;;55.53;31.83;;;;;;;4.86;85.24;101838.81;5012033;28;20045;-49
2021/04/20 05:48:01;;;;;;;52.28;29.45;;;;;;;4.89;85.76;101843.09;5011973;28;20121;-50
2021/04/20 05:50:30;;;;;;;54.65;32.55;;;;;;;4.90;85.87;101835.25;4994873;28;20050;-48
2021/04/20 05:52:58;;;;;;;62.28;34.58;;;;;;;4.94;87.32;101836.03;5011873;28;20042;-51
2021/04/20 05:55:24;;;;;;;61.05;32.85;;;;;;;5.03;87.97;101840.13;5027197;28;20108;-48
2021/04/20 05:57:52;;;;;;;61.33;34.72;;;;;;;5.12;88.33;101845.13;5010819;28;20054;-48
2021/04/20 06:00:23;;;;;;;63.08;36.53;;;;;;;5.19;88.14;101846.66;5011828;28;20385;-47
2021/04/20 06:02:53;;;;;;;61.30;34.53;;;;;;;5.26;87.98;101844.75;5010501;28;20152;-48
2021/04/20 06:05:26;;;;;;;67.75;36.67;;;;;;;5.34;87.98;101834.09;5010665;28;20133;-48
2021/04/20 06:08:00;;;;;;;69.43;37.42;;;;;;;5.48;88.12;101842.44;5011519;28;20080;-48
2021/04/20 06:10:26;;;;;;;69.65;38.05;;;;;;;5.82;87.59;101849.28;5011490;28;20069;-48
2021/04/20 06:12:53;;;;;;;68.82;38.67;;;;;;;5.83;87.58;101843.16;5015264;28;20121;-49
2021/04/20 06:15:22;;;;;;;79.00;41.60;;;;;;;5.93;87.17;101842.00;5015354;28;20053;-52
2021/04/20 06:17:51;;;;;;;78.55;41.35;;;;;;;6.06;87.25;101841.66;5015140;28;20060;-48
2021/04/20 06:20:18;;;;;;;74.00;38.92;;;;;;;6.14;86.93;101842.28;5014633;28;20385;-52
2021/04/20 06:22:49;;;;;;;74.43;39.85;;;;;;;6.20;86.40;101842.09;5013964;28;20044;-53
2021/04/20 06:25:16;;;;;;;79.60;39.22;;;;;;;6.31;86.74;101853.97;5015374;28;20069;-50
2021/04/20 06:27:43;;;;;;;71.70;40.65;;;;;;;6.38;87.22;101840.66;5014112;28;20045;-52
2021/04/20 06:30:11;;;;;;;77.22;41.67;;;;;;;6.57;86.56;101840.94;5013196;28;20046;-49
2021/04/20 06:32:45;;;;;;;69.80;40.58;;;;;;;6.77;85.38;101837.63;5013298;28;20652;-49
2021/04/20 06:35:13;;;;;;;65.82;38.50;;;;;;;7.00;83.06;101846.47;5014808;28;20096;-50
2021/04/20 06:37:41;;;;;;;63.58;38.75;;;;;;;7.09;83.36;101853.19;5014973;28;20120;-51
2021/04/20 06:40:13;;;;;;;74.75;39.80;;;;;;;7.14;85.49;101848.63;4997533;28;20049;-49
2021/04/20 06:42:44;;;;;;;64.90;39.22;;;;;;;7.21;85.38;101851.88;5014508;28;20046;-47
2021/04/20 06:45:12;;;;;;;64.28;40.67;;;;;;;7.35;85.39;101846.16;5013686;28;20042;-51
2021/04/20 06:47:44;;;;;;;69.40;42.72;;;;;;;7.53;84.82;101849.88;5013393;28;20450;-47
2021/04/20 06:50:15;;;;;;;68.07;40.97;;;;;;;7.63;83.92;101847.78;5013356;28;20041;-48
2021/04/20 06:52:53;;;;;;;66.85;41.58;;;;;;;7.74;82.08;101845.63;5013114;28;20045;-47
2021/04/20 06:55:41;;;;;;;67.47;41.47;;;;;;;7.89;82.90;101845.03;5014489;28;20061;-47
2021/04/20 06:58:24;;;;;;;68.47;42.17;;;;;;;8.07;81.82;101838.25;5014565;28;20129;-51
2021/04/20 07:00:53;;;;;;;61.50;39.60;;;;;;;8.23;82.29;101835.88;5013203;28;20299;-50
2021/04/20 07:03:29;;;;;;;61.78;40.78;;;;;;;8.35;81.27;101836.31;5013219;28;20120;-50
2021/04/20 07:06:15;;;;;;;62.90;40.85;;;;;;;8.53;80.09;101826.88;5013312;28;20060;-48
2021/04/20 07:08:51;;;;;;;63.35;40.13;;;;;;;8.69;79.89;101830.56;5012730;28;20504;-50
2021/04/20 07:11:17;;;;;;;66.57;41.45;;;;;;;8.85;77.78;101824.69;4996824;28;20145;-47
2021/04/20 07:13:49;;;;;;;60.83;39.67;;;;;;;9.05;78.69;101834.34;5014274;28;20059;-50
2021/04/20 07:16:24;;;;;;;61.05;39.15;;;;;;;9.19;78.49;101831.97;5013019;28;20060;-49
2021/04/20 07:19:22;;;;;;;59.75;39.22;;;;;;;9.39;77.44;101830.22;5014152;28;20107;-49
2021/04/20 07:22:07;;;;;;;56.03;36.42;;;;;;;9.67;74.65;101829.84;5014096;28;20050;-54
2021/04/20 07:24:39;;;;;;;53.20;36.70;;;;;;;9.82;75.12;101828.28;5014323;28;20077;-52
2021/04/20 07:27:11;;;;;;;60.97;38.97;;;;;;;10.08;74.56;101826.22;5014189;28;20121;-51
2021/04/20 07:30:14;;;;;;;52.97;36.47;;;;;;;10.28;74.52;101820.88;5029170;28;20045;-47
2021/04/20 07:33:09;;;;;;;56.40;38.30;;;;;;;10.57;73.22;101823.03;5013929;28;20045;-54
2021/04/20 07:35:51;;;;;;;60.80;38.53;;;;;;;10.79;71.97;101817.53;5029350;28;20050;-53
2021/04/20 07:38:26;;;;;;;53.10;36.50;;;;;;;11.05;69.12;101821.47;5014105;28;20045;-48
2021/04/20 07:41:22;;;;;;;53.30;35.00;;;;;;;11.19;69.22;101818.09;5012535;28;20133;-50
2021/04/20 07:44:26;;;;;;;52.95;36.40;;;;;;;11.44;68.40;101832.63;5012777;28;20053;-51
2021/04/20 07:46:55;;;;;;;47.92;34.97;;;;;;;11.63;66.72;101822.81;5013877;28;20665;-51
2021/04/20 07:49:43;;;;;;;51.15;34.45;;;;;;;11.80;66.83;101821.88;5012683;28;20050;-52
2021/04/20 07:52:17;;;;;;;51.78;36.05;;;;;;;12.01;65.88;101824.28;5013883;28;20061;-54
2021/04/20 07:55:02;;;;;;;52.30;35.58;;;;;;;12.29;63.60;101822.75;5012328;28;20049;-54
2021/04/20 07:57:36;;;;;;;47.42;33.67;;;;;;;12.43;64.17;101819.31;5013826;28;20061;-47
2021/04/20 08:00:13;;;;;;;47.92;34.28;;;;;;;12.42;61.49;101814.97;5013589;28;20045;-54
2021/04/20 08:02:51;;;;;;;48.63;34.92;;;;;;;12.62;62.07;101817.31;5012449;28;20046;-52
2021/04/20 08:05:23;;;;;;;44.25;33.30;;;;;;;12.83;61.13;101822.28;5013553;28;20385;-49
2021/04/20 08:08:08;;;;;;;39.70;30.67;;;;;;;13.04;58.95;101821.94;5011800;28;20042;-55
2021/04/20 08:10:38;;;;;;;43.92;30.85;;;;;;;13.24;58.22;101820.72;5013195;28;20057;-55
2021/04/20 08:13:14;;;;;;;42.50;31.20;;;;;;;13.39;58.93;101817.19;5011496;28;20044;-53
2021/04/20 08:15:44;;;;;;;43.40;29.85;;;;;;;13.46;56.96;101809.75;4995620;28;20401;-53
2021/04/20 08:18:14;;;;;;;46.30;32.47;;;;;;;13.64;56.80;101811.22;5012097;28;20117;-55
2021/04/20 08:20:43;;;;;;;45.75;31.52;;;;;;;13.89;56.00;101804.38;5013333;28;20046;-56
2021/04/20 08:23:11;;;;;;;47.05;33.00;;;;;;;14.20;55.21;101803.22;5012183;28;20050;-51
2021/04/20 08:25:41;;;;;;;44.90;31.35;;;;;;;14.34;54.20;101798.84;5011906;28;20589;-51
2021/04/20 08:28:31;;;;;;;41.03;29.40;;;;;;;14.53;54.14;101806.41;5011715;28;20050;-53
2021/04/20 08:31:20;;;;;;;41.10;29.10;;;;;;;14.76;53.34;101804.06;4995469;28;20037;-51
2021/04/20 08:33:51;;;;;;;36.67;26.10;;;;;;;15.03;52.08;101802.16;5010978;28;20085;-50
2021/04/20 08:36:49;;;;;;;39.47;27.50;;;;;;;15.22;51.01;101798.25;5011882;28;20041;-51
2021/04/20 08:39:51;;;;;;;36.35;27.02;;;;;;;15.32;50.90;101798.44;5012700;28;20042;-48
2021/04/20 08:42:43;;;;;;;37.53;26.98;;;;;;;15.54;51.34;101795.09;5011836;28;20042;-50
2021/04/20 08:45:28;;;;;;;38.83;28.23;;;;;;;15.86;51.07;101799.94;5011937;28;20054;-55
2021/04/20 08:48:03;;;;;;;38.17;25.55;;;;;;;15.92;47.06;101790.69;5012498;28;20063;-51
2021/04/20 08:50:36;;;;;;;33.35;24.52;;;;;;;16.12;47.31;101792.72;5027963;28;20145;-55
2021/04/20 08:53:34;;;;;;;30.55;22.60;;;;;;;16.42;47.25;101796.72;5012807;28;20046;-55
2021/04/20 08:56:21;;;;;;;31.40;21.77;;;;;;;16.59;44.76;101794.59;5011420;28;20380;-55
2021/04/20 08:58:56;;;;;;;30.40;23.27;;;;;;;16.54;44.61;101794.97;5012127;28;20046;-50
2021/04/20 09:01:50;;;;;;;33.60;23.38;;;;;;;16.73;44.21;101792.59;5011374;28;20058;-57
2021/04/20 09:04:21;;;;;;;30.00;22.25;;;;;;;16.99;44.96;101800.41;5012707;28;20077;-56
2021/04/20 09:06:51;;;;;;;26.35;21.27;;;;;;;17.21;44.03;101782.78;5011346;28;20144;-57
2021/04/20 09:09:21;;;;;;;23.75;19.15;;;;;;;17.25;41.03;101794.88;5011023;28;20077;-57
2021/04/20 09:12:00;;;;;;;24.42;18.42;;;;;;;17.35;41.76;101793.16;5010899;28;20056;-56
2021/04/20 09:14:39;;;;;;;24.45;18.92;;;;;;;17.36;42.24;101789.53;5012558;28;20056;-53
2021/04/20 09:17:17;;;;;;;23.85;18.63;;;;;;;17.62;40.48;101786.63;4994857;28;20064;-53
2021/04/20 09:19:51;;;;;;;22.77;18.35;;;;;;;17.91;39.97;101786.06;5010870;28;20115;-57
2021/04/20 09:22:21;;;;;;;25.63;20.27;;;;;;;18.00;40.62;101785.34;5011066;28;20050;-57
2021/04/20 09:24:57;;;;;;;25.33;19.50;;;;;;;17.95;38.65;101784.88;5010750;28;20104;-52
2021/04/20 09:27:27;;;;;;;24.17;18.80;;;;;;;17.98;38.35;101781.97;5012258;28;20037;-52
2021/04/20 09:30:03;;;;;;;23.88;18.92;;;;;;;18.38;39.92;101786.66;5010882;28;20068;-57
2021/04/20 09:32:41;;;;;;;23.73;19.33;;;;;;;18.41;39.51;101783.72;5010827;28;20045;-57
2021/04/20 09:35:08;;;;;;;22.23;18.75;;;;;;;18.55;39.32;101784.41;5012266;28;20518;-50
2021/04/20 09:37:36;;;;;;;24.85;18.42;;;;;;;18.79;38.19;101784.13;5012138;28;20052;-53
2021/04/20 09:40:04;;;;;;;22.75;18.38;;;;;;;18.79;38.77;101783.28;5011070;28;20127;-52
2021/04/20 09:42:31;;;;;;;22.23;18.65;;;;;;;18.70;37.85;101780.41;5011000;28;20050;-50
2021/04/20 09:45:11;;;;;;;23.20;18.38;;;;;;;18.99;38.15;101782.47;5012841;28;20117;-56
2021/04/20 09:47:59;;;;;;;22.08;17.67;;;;;;;19.32;36.87;101779.63;5015963;28;20044;-56
2021/04/20 09:50:31;;;;;;;22.92;18.75;;;;;;;19.29;37.12;101780.75;5031266;28;20042;-50
2021/04/20 09:53:09;;;;;;;22.40;17.30;;;;;;;19.36;36.46;101781.91;5031087;28;20045;-51
2021/04/20 09:55:40;;;;;;;21.40;18.15;;;;;;;19.66;37.51;101785.53;5015801;28;20371;-56
2021/04/20 09:58:08;;;;;;;24.02;19.10;;;;;;;19.82;35.72;101778.81;5015909;28;20077;-52
2021/04/20 10:00:35;;;;;;;23.15;18.42;;;;;;;19.99;35.70;101772.81;5014622;28;20517;-56
2021/04/20 10:03:23;;;;;;;21.77;18.02;;;;;;;20.17;34.55;101782.81;5014714;28;20423;-56
2021/04/20 10:06:08;;;;;;;21.63;17.25;;;;;;;20.25;32.61;101773.09;5015568;28;20056;-52
2021/04/20 10:08:43;;;;;;;21.33;16.55;;;;;;;19.89;34.30;101769.28;5015671;28;20132;-49
2021/04/20 10:11:18;;;;;;;19.88;15.88;;;;;;;19.92;33.48;101774.38;5015567;28;20136;-51
2021/04/20 10:14:11;;;;;;;19.48;15.90;;;;;;;19.84;31.85;101771.53;5014301;28;20050;-48
2021/04/20 10:16:43;;;;;;;18.23;15.30;;;;;;;19.93;31.93;101774.22;5015434;28;20077;-56
2021/04/20 10:19:29;;;;;;;;;;;;;;;19.86;32.20;101778.41;5014486;28;20057;-51
2021/04/20 10:22:27;;;;;;;17.67;13.63;;;;;;;19.98;31.71;101767.63;5015283;28;20012;-51
2021/04/20 10:25:07;;;;;;;20.25;16.15;;;;;;;19.72;32.51;101768.94;5014149;28;20046;-49
2021/04/20 10:27:35;;;;;;;20.73;15.38;;;;;;;20.03;32.86;101771.56;5015268;28;20046;-52
2021/04/20 10:30:32;;;;;;;18.52;15.30;;;;;;;19.87;33.48;101765.91;5014035;28;20079;-56
2021/04/20 10:32:59;;;;;;;18.63;14.52;;;;;;;20.20;31.89;101767.31;4998699;28;20374;-57
2021/04/20 10:35:31;;;;;;;18.85;13.85;;;;;;;20.39;31.55;101766.47;5014204;28;20053;-51
2021/04/20 10:37:59;;;;;;;16.98;13.60;;;;;;;20.64;31.67;101761.50;5013778;28;20050;-49
2021/04/20 10:40:31;;;;;;;15.25;12.23;;;;;;;20.24;30.27;101752.69;5015016;28;20504;-50
2021/04/20 10:43:12;;;;;;;17.48;12.60;;;;;;;20.60;29.85;101757.44;5015183;28;20054;-50
2021/04/20 10:45:40;;;;;;;17.33;13.90;;;;;;;21.10;31.69;101759.88;5013763;28;20046;-50
2021/04/20 10:48:07;;;;;;;18.02;14.90;;;;;;;21.07;29.90;101752.13;5013823;28;20052;-49
2021/04/20 10:50:35;;;;;;;19.73;14.15;;;;;;;21.13;29.95;101755.22;5014871;28;20470;-58
2021/04/20 10:53:09;;;;;;;15.88;12.73;;;;;;;21.48;29.01;101751.78;4997331;28;20137;-58
2021/04/20 10:55:39;;;;;;;15.32;12.85;;;;;;;21.65;30.49;101742.16;5013128;28;20048;-58
2021/04/20 10:58:07;;;;;;;13.70;11.05;;;;;;;21.88;28.04;101739.00;5013436;28;20046;-58
2021/04/20 11:00:34;;;;;;;11.85;8.50;;;;;;;22.10;27.34;101732.34;5013200;28;20534;-58
2021/04/20 11:03:01;;;;;;;13.20;9.18;;;;;;;21.19;26.46;101738.59;5012305;28;20423;-54
2021/04/20 11:05:28;;;;;;;13.00;9.40;;;;;;;21.76;26.99;101723.19;5011668;28;20050;-59
2021/04/20 11:07:56;;;;;;;12.10;8.48;;;;;;;22.20;26.97;101730.44;5013164;28;20057;-51
2021/04/20 11:10:27;;;;;;;12.18;8.55;;;;;;;22.00;26.07;101731.59;5013186;28;20065;-52
2021/04/20 11:12:55;;;;;;;13.52;8.93;;;;;;;21.69;26.72;101721.25;5014418;28;20073;-58
2021/04/20 11:15:26;;;;;;;11.68;8.20;;;;;;;21.35;25.80;101729.88;5014614;28;20041;-58
2021/04/20 11:17:55;;;;;;;11.82;7.75;;;;;;;21.22;26.25;101725.72;5012972;28;20080;-50
2021/04/20 11:20:28;;;;;;;13.02;10.13;;;;;;;21.61;26.36;101725.53;5011456;28;20049;-58
2021/04/20 11:23:07;;;;;;;15.55;12.40;;;;;;;20.77;28.87;101724.66;5013059;28;20076;-58
2021/04/20 11:25:38;;;;;;;15.45;11.73;;;;;;;21.44;29.30;101723.66;5013998;28;20111;-58
2021/04/20 11:28:15;;;;;;;16.02;12.88;;;;;;;21.37;30.01;101722.56;5012968;28;20116;-58
2021/04/20 11:30:51;;;;;;;16.00;11.90;;;;;;;21.89;28.99;101714.75;5012673;28;20045;-51
2021/04/20 11:33:23;;;;;;;15.40;11.43;;;;;;;21.93;28.04;101712.63;5012575;28;20049;-53
2021/04/20 11:35:51;;;;;;;15.20;11.57;;;;;;;22.25;28.05;101712.06;5013324;28;20060;-51